Time;durP1;ratioP1;P1;durP2;ratioP2;P2;SDS_P1;SDS_P2;PMS_P1;PMS_P2;Temp;Humidity;BMP_temperature;BMP_pressure;BME280_temperature;BME280_humidity;BME280_pressure;Samples;Min_cycle;Max_cycle;Signal;HPM_P1;HPM_P2
2022/07/28 00:00:45;;;;;;;;;;;;;;;;;;4947666;28;19916;-77
2022/07/28 00:03:10;;;;;;;;;;;;;;;;;;4945393;29;19922;-78
2022/07/28 00:05:35;;;;;;;;;;;;;;;;;;4957541;28;19914;-75
2022/07/28 00:08:01;;;;;;;;;;;;;;;;;;4956855;28;19915;-78
2022/07/28 00:10:26;;;;;;;;;;;;;;;;;;4971731;28;20005;-77
2022/07/28 00:12:51;;;;;;;;;;;;;;;;;;4957265;28;19969;-79
2022/07/28 00:15:17;;;;;;;;;;;;;;;;;;4972049;28;19919;-78
2022/07/28 00:17:42;;;;;;;;;;;;;;;;;;4950708;28;20389;-76
2022/07/28 00:20:07;;;;;;;;;;;;;;;;;;4957510;28;19916;-76
2022/07/28 00:22:33;;;;;;;;;;;;;;;;;;4918660;29;19954;-79
2022/07/28 00:24:58;;;;;;;;;;;;;;;;;;4918569;29;19915;-78
2022/07/28 00:27:23;;;;;;;;;;;;;;;;;;4918332;29;19915;-78
2022/07/28 00:29:49;;;;;;;;;;;;;;;;;;4933177;29;19970;-79
2022/07/28 00:32:14;;;;;;;;;;;;;;;;;;4932888;29;19922;-77
2022/07/28 00:34:40;;;;;;;;;;;;;;;;;;4949344;28;19915;-77
2022/07/28 00:37:05;;;;;;;;;;;;;;;;;;4960431;28;20377;-78
2022/07/28 00:39:30;;;;;;;;;;;;;;;;;;4956352;28;19914;-78
2022/07/28 00:41:56;;;;;;;;;;;;;;;;;;4954314;29;20001;-78
2022/07/28 00:44:21;;;;;;;;;;;;;;;;;;4954359;29;19915;-76
2022/07/28 00:46:46;;;;;;;;;;;;;;;;;;4955437;28;19919;-78
2022/07/28 00:49:12;;;;;;;;;;;;;;;;;;4955439;28;19921;-76
2022/07/28 00:51:37;;;;;;;;;;;;;;;;;;4955338;28;19915;-78
2022/07/28 00:54:02;;;;;;;;;;;;;;;;;;4944515;29;19921;-77
2022/07/28 00:56:28;;;;;;;;;;;;;;;;;;4947119;28;20017;-77
2022/07/28 00:58:53;;;;;;;;;;;;;;;;;;4956013;28;20271;-77
2022/07/28 01:01:19;;;;;;;;;;;;;;;;;;4954899;28;20289;-77
2022/07/28 01:03:44;;;;;;;;;;;;;;;;;;4954779;28;19962;-78
2022/07/28 01:06:10;;;;;;;;;;;;;;;;;;4969784;28;20254;-78
2022/07/28 01:08:38;;;;;;;;;;;;;;;;;;4949634;28;19922;-79
2022/07/28 01:11:03;;;;;;;;;;;;;;;;;;4937550;29;20293;-78
2022/07/28 01:13:28;;;;;;;;;;;;;;;;;;4949884;28;19970;-78
2022/07/28 01:15:54;;;;;;;;;;;;;;;;;;4934443;29;20356;-76
2022/07/28 01:18:19;;;;;;;;;;;;;;;;;;4934779;29;20326;-77
2022/07/28 01:20:46;;;;;;;;;;;;;;;;;;4936746;29;20394;-78
2022/07/28 01:23:11;;;;;;;;;;;;;;;;;;4935181;29;19915;-79
2022/07/28 01:25:37;;;;;;;;;;;;;;;;;;4936465;29;19962;-77
2022/07/28 01:28:02;;;;;;;;;;;;;;;;;;4935517;29;19921;-77
2022/07/28 01:30:27;;;;;;;;;;;;;;;;;;4944086;29;19921;-77
2022/07/28 01:32:53;;;;;;;;;;;;;;;;;;4931132;29;19916;-78
2022/07/28 01:35:18;;;;;;;;;;;;;;;;;;4916649;29;19919;-78
2022/07/28 01:37:43;;;;;;;;;;;;;;;;;;4915067;29;20272;-78
2022/07/28 01:40:09;;;;;;;;;;;;;;;;;;4916247;29;19923;-76
2022/07/28 01:42:34;;;;;;;;;;;;;;;;;;4914861;29;19926;-77
2022/07/28 01:45:00;;;;;;;;;;;;;;;;;;4936248;29;20289;-78
2022/07/28 01:47:25;;;;;;;;;;;;;;;;;;4946265;28;19915;-78
2022/07/28 01:49:50;;;;;;;;;;;;;;;;;;4954311;28;19914;-78
2022/07/28 01:52:16;;;;;;;;;;;;;;;;;;4954300;28;20013;-78
2022/07/28 01:54:41;;;;;;;;;;;;;;;;;;4954041;28;19956;-77
2022/07/28 01:57:07;;;;;;;;;;;;;;;;;;4969042;28;19925;-79
2022/07/28 01:59:32;;;;;;;;;;;;;;;;;;4954053;28;20021;-77
2022/07/28 02:01:57;;;;;;;;;;;;;;;;;;4961580;28;19923;-78
2022/07/28 02:04:23;;;;;;;;;;;;;;;;;;4942446;29;19915;-78
2022/07/28 02:06:48;;;;;;;;;;;;;;;;;;4969120;28;19914;-78
2022/07/28 02:09:13;;;;;;;;;;;;;;;;;;4954148;28;19914;-77
2022/07/28 02:11:39;;;;;;;;;;;;;;;;;;4968641;28;19922;-77
2022/07/28 02:14:04;;;;;;;;;;;;;;;;;;4954029;28;20350;-79
2022/07/28 02:16:29;;;;;;;;;;;;;;;;;;4953782;28;19966;-80
2022/07/28 02:18:55;;;;;;;;;;;;;;;;;;4952768;28;19915;-79
2022/07/28 02:21:20;;;;;;;;;;;;;;;;;;4954246;28;20378;-77
2022/07/28 02:23:45;;;;;;;;;;;;;;;;;;4915727;29;19937;-79
2022/07/28 02:26:11;;;;;;;;;;;;;;;;;;4915740;29;19923;-79
2022/07/28 02:28:36;;;;;;;;;;;;;;;;;;4915799;29;19925;-79
2022/07/28 02:31:01;;;;;;;;;;;;;;;;;;4914422;29;20298;-80
2022/07/28 02:33:27;;;;;;;;;;;;;;;;;;4924566;29;19915;-76
2022/07/28 02:35:52;;;;;;;;;;;;;;;;;;4939556;29;19919;-79
2022/07/28 02:38:18;;;;;;;;;;;;;;;;;;4949609;28;19919;-79
2022/07/28 02:40:43;;;;;;;;;;;;;;;;;;4957646;28;19914;-79
2022/07/28 02:43:08;;;;;;;;;;;;;;;;;;4972345;28;20370;-79
2022/07/28 02:45:34;;;;;;;;;;;;;;;;;;4957723;28;20313;-79
2022/07/28 02:47:59;;;;;;;;;;;;;;;;;;4957381;28;19915;-78
2022/07/28 02:50:25;;;;;;;;;;;;;;;;;;4957499;28;19946;-78
2022/07/28 02:52:50;;;;;;;;;;;;;;;;;;4942289;29;19957;-78
2022/07/28 02:55:16;;;;;;;;;;;;;;;;;;4938904;29;19927;-78
2022/07/28 02:57:41;;;;;;;;;;;;;;;;;;4936937;29;20279;-79
2022/07/28 03:00:06;;;;;;;;;;;;;;;;;;4953105;29;19919;-77
2022/07/28 03:02:35;;;;;;;;;;;;;;;;;;4938263;29;19915;-79
2022/07/28 03:05:01;;;;;;;;;;;;;;;;;;4938492;29;20025;-79
2022/07/28 03:07:27;;;;;;;;;;;;;;;;;;4938269;29;19966;-77
2022/07/28 03:12:23;;;;;;;;;;;;;;;;;;4954984;29;19926;-82
2022/07/28 03:14:48;;;;;;;;;;;;;;;;;;4951601;29;19970;-83
2022/07/28 03:17:13;;;;;;;;;;;;;;;;;;4955407;29;19922;-79
2022/07/28 03:19:39;;;;;;;;;;;;;;;;;;4955591;29;19914;-81
2022/07/28 03:22:04;;;;;;;;;;;;;;;;;;4956512;28;19921;-82
2022/07/28 03:24:29;;;;;;;;;;;;;;;;;;4951506;29;20010;-82
2022/07/28 03:26:55;;;;;;;;;;;;;;;;;;4939548;29;19922;-82
2022/07/28 03:29:20;;;;;;;;;;;;;;;;;;4956383;29;19915;-82
2022/07/28 03:31:46;;;;;;;;;;;;;;;;;;4954076;29;20331;-82
2022/07/28 03:34:12;;;;;;;;;;;;;;;;;;4957046;28;19914;-85
2022/07/28 03:36:38;;;;;;;;;;;;;;;;;;4957188;29;20354;-78
2022/07/28 03:39:04;;;;;;;;;;;;;;;;;;4939266;29;19915;-77
2022/07/28 03:41:29;;;;;;;;;;;;;;;;;;4955940;29;19918;-80
2022/07/28 03:43:54;;;;;;;;;;;;;;;;;;4933417;29;19918;-79
2022/07/28 03:46:20;;;;;;;;;;;;;;;;;;4955305;28;19914;-79
2022/07/28 03:48:45;;;;;;;;;;;;;;;;;;4956090;28;19914;-79
2022/07/28 03:51:11;;;;;;;;;;;;;;;;;;4956025;29;20292;-80
2022/07/28 03:53:36;;;;;;;;;;;;;;;;;;4955802;28;19911;-80
2022/07/28 03:56:02;;;;;;;;;;;;;;;;;;4954682;29;19922;-79
2022/07/28 03:58:27;;;;;;;;;;;;;;;;;;4938915;29;19925;-79
2022/07/28 04:00:53;;;;;;;;;;;;;;;;;;4955976;29;19911;-78
2022/07/28 04:03:18;;;;;;;;;;;;;;;;;;4954379;29;19922;-78
2022/07/28 04:05:43;;;;;;;;;;;;;;;;;;4955812;29;19914;-79
2022/07/28 04:08:09;;;;;;;;;;;;;;;;;;4955877;29;19954;-79
2022/07/28 04:10:34;;;;;;;;;;;;;;;;;;4954366;28;19923;-80
2022/07/28 04:12:59;;;;;;;;;;;;;;;;;;4954498;29;19921;-79
2022/07/28 04:15:25;;;;;;;;;;;;;;;;;;4954239;28;19918;-80
2022/07/28 04:17:50;;;;;;;;;;;;;;;;;;4954455;29;19946;-80
2022/07/28 04:20:15;;;;;;;;;;;;;;;;;;4938145;29;19973;-79
2022/07/28 04:22:41;;;;;;;;;;;;;;;;;;4938280;29;20330;-78
2022/07/28 04:25:06;;;;;;;;;;;;;;;;;;4955372;29;19961;-80
2022/07/28 04:27:31;;;;;;;;;;;;;;;;;;4954164;29;19925;-79
2022/07/28 04:29:57;;;;;;;;;;;;;;;;;;4938124;29;19922;-78
2022/07/28 04:32:22;;;;;;;;;;;;;;;;;;4954012;29;19914;-80
2022/07/28 04:34:48;;;;;;;;;;;;;;;;;;4953814;29;20322;-80
2022/07/28 04:37:13;;;;;;;;;;;;;;;;;;4938214;29;19914;-80
2022/07/28 04:39:39;;;;;;;;;;;;;;;;;;4954802;29;19914;-79
2022/07/28 04:42:04;;;;;;;;;;;;;;;;;;4937945;29;19940;-78
2022/07/28 04:44:30;;;;;;;;;;;;;;;;;;4953557;29;19915;-78
2022/07/28 04:46:55;;;;;;;;;;;;;;;;;;4954018;29;20294;-79
2022/07/28 04:49:22;;;;;;;;;;;;;;;;;;4954210;29;20392;-78
2022/07/28 04:51:51;;;;;;;;;;;;;;;;;;4954932;29;19918;-81
2022/07/28 04:54:16;;;;;;;;;;;;;;;;;;4954600;29;19921;-81
2022/07/28 04:56:41;;;;;;;;;;;;;;;;;;4954317;28;19918;-81
2022/07/28 04:59:07;;;;;;;;;;;;;;;;;;4953635;29;20371;-81
2022/07/28 05:01:33;;;;;;;;;;;;;;;;;;4953330;29;19966;-81
2022/07/28 05:03:58;;;;;;;;;;;;;;;;;;4953410;29;19925;-80
2022/07/28 05:06:23;;;;;;;;;;;;;;;;;;4954580;29;20362;-82
2022/07/28 05:08:49;;;;;;;;;;;;;;;;;;4955440;29;19921;-81
2022/07/28 05:11:15;;;;;;;;;;;;;;;;;;4954557;28;19918;-81
2022/07/28 05:13:40;;;;;;;;;;;;;;;;;;4954314;29;20040;-82
2022/07/28 05:16:05;;;;;;;;;;;;;;;;;;4954766;29;19937;-82
2022/07/28 05:18:31;;;;;;;;;;;;;;;;;;4952667;29;19911;-82
2022/07/28 05:20:56;;;;;;;;;;;;;;;;;;4953051;29;19914;-80
2022/07/28 05:23:21;;;;;;;;;;;;;;;;;;4954131;29;19961;-81
2022/07/28 05:25:47;;;;;;;;;;;;;;;;;;4954164;29;19997;-80
2022/07/28 05:28:12;;;;;;;;;;;;;;;;;;4952932;29;19915;-80
2022/07/28 05:30:38;;;;;;;;;;;;;;;;;;4953850;29;19923;-82
2022/07/28 05:33:03;;;;;;;;;;;;;;;;;;4952921;28;19914;-81
2022/07/28 05:35:29;;;;;;;;;;;;;;;;;;4953932;28;19915;-81
2022/07/28 05:37:54;;;;;;;;;;;;;;;;;;4953268;29;19915;-81
2022/07/28 05:40:19;;;;;;;;;;;;;;;;;;4937091;29;19962;-80
2022/07/28 05:42:46;;;;;;;;;;;;;;;;;;4952985;29;19921;-81
2022/07/28 05:45:12;;;;;;;;;;;;;;;;;;4954046;28;19980;-80
2022/07/28 05:47:37;;;;;;;;;;;;;;;;;;4953163;28;20557;-80
2022/07/28 05:50:02;;;;;;;;;;;;;;;;;;4954387;29;19915;-80
2022/07/28 05:52:28;;;;;;;;;;;;;;;;;;4936524;29;20005;-81
2022/07/28 05:54:53;;;;;;;;;;;;;;;;;;4953940;29;19922;-80
2022/07/28 05:57:18;;;;;;;;;;;;;;;;;;4953880;29;19915;-80
2022/07/28 05:59:44;;;;;;;;;;;;;;;;;;4952621;29;19914;-80
2022/07/28 06:02:09;;;;;;;;;;;;;;;;;;4936583;29;20009;-81
2022/07/28 06:04:34;;;;;;;;;;;;;;;;;;4953302;29;19914;-81
2022/07/28 06:07:00;;;;;;;;;;;;;;;;;;4952414;29;19926;-81
2022/07/28 06:09:25;;;;;;;;;;;;;;;;;;4953284;28;19915;-80
2022/07/28 06:11:50;;;;;;;;;;;;;;;;;;4954147;29;19919;-81
2022/07/28 06:14:16;;;;;;;;;;;;;;;;;;4956000;29;19937;-80
2022/07/28 06:16:42;;;;;;;;;;;;;;;;;;4969621;29;19923;-80
2022/07/28 06:19:07;;;;;;;;;;;;;;;;;;4966778;28;19938;-81
2022/07/28 06:21:33;;;;;;;;;;;;;;;;;;4968838;29;19918;-81
2022/07/28 06:23:58;;;;;;;;;;;;;;;;;;4967690;29;19915;-82
2022/07/28 06:26:23;;;;;;;;;;;;;;;;;;4965323;29;19915;-79
2022/07/28 06:28:49;;;;;;;;;;;;;;;;;;4960659;28;19960;-79
2022/07/28 06:31:14;;;;;;;;;;;;;;;;;;4954797;29;19970;-79
2022/07/28 06:33:40;;;;;;;;;;;;;;;;;;4953564;28;19921;-79
2022/07/28 06:36:05;;;;;;;;;;;;;;;;;;4952168;29;19918;-80
2022/07/28 06:38:31;;;;;;;;;;;;;;;;;;4953770;28;19918;-81
2022/07/28 06:40:57;;;;;;;;;;;;;;;;;;4952132;29;19939;-80
2022/07/28 06:43:23;;;;;;;;;;;;;;;;;;4952400;29;19922;-80
2022/07/28 06:45:50;;;;;;;;;;;;;;;;;;4953774;28;20323;-80
2022/07/28 06:48:15;;;;;;;;;;;;;;;;;;4952072;29;20386;-81
2022/07/28 06:50:40;;;;;;;;;;;;;;;;;;4954313;29;19960;-80
2022/07/28 06:53:06;;;;;;;;;;;;;;;;;;4953497;28;20302;-80
2022/07/28 06:55:31;;;;;;;;;;;;;;;;;;4936132;29;19927;-78
2022/07/28 06:57:57;;;;;;;;;;;;;;;;;;4953398;28;19914;-80
2022/07/28 07:00:22;;;;;;;;;;;;;;;;;;4953854;29;19969;-81
2022/07/28 07:02:47;;;;;;;;;;;;;;;;;;4953427;29;19923;-81
2022/07/28 07:05:13;;;;;;;;;;;;;;;;;;4953345;29;19916;-80
2022/07/28 07:07:38;;;;;;;;;;;;;;;;;;4953153;29;20013;-80
2022/07/28 07:10:04;;;;;;;;;;;;;;;;;;4952657;28;20001;-81
2022/07/28 07:12:29;;;;;;;;;;;;;;;;;;4954043;29;19918;-81
2022/07/28 07:14:54;;;;;;;;;;;;;;;;;;4953768;29;20309;-82
2022/07/28 07:17:20;;;;;;;;;;;;;;;;;;4953256;29;19915;-84
2022/07/28 07:19:45;;;;;;;;;;;;;;;;;;4953952;28;19914;-81
2022/07/28 07:22:17;;;;;;;;;;;;;;;;;;4958076;29;19922;-83
2022/07/28 07:24:42;;;;;;;;;;;;;;;;;;4957575;28;19972;-81
2022/07/28 07:27:07;;;;;;;;;;;;;;;;;;4957374;29;19915;-83
2022/07/28 07:29:33;;;;;;;;;;;;;;;;;;4959496;28;19946;-81
2022/07/28 07:31:58;;;;;;;;;;;;;;;;;;4962408;29;19903;-85
2022/07/28 07:34:24;;;;;;;;;;;;;;;;;;4940930;29;19915;-84
2022/07/28 07:36:49;;;;;;;;;;;;;;;;;;4956469;29;19922;-83
2022/07/28 07:39:14;;;;;;;;;;;;;;;;;;4956682;29;20285;-83
2022/07/28 07:41:40;;;;;;;;;;;;;;;;;;4956607;29;20293;-86
2022/07/28 07:44:05;;;;;;;;;;;;;;;;;;4955849;29;19918;-86
2022/07/28 07:46:30;;;;;;;;;;;;;;;;;;4956212;29;20354;-86
2022/07/28 07:48:56;;;;;;;;;;;;;;;;;;4955887;29;19961;-87
2022/07/28 07:51:21;;;;;;;;;;;;;;;;;;4955488;28;19915;-85
2022/07/28 07:53:47;;;;;;;;;;;;;;;;;;4956113;29;19922;-85
2022/07/28 07:56:14;;;;;;;;;;;;;;;;;;4955192;29;20016;-84
2022/07/28 07:58:40;;;;;;;;;;;;;;;;;;4952208;29;19915;-84
2022/07/28 08:01:05;;;;;;;;;;;;;;;;;;4943217;29;20056;-85
2022/07/28 08:03:30;;;;;;;;;;;;;;;;;;4956890;29;19987;-86
2022/07/28 08:05:56;;;;;;;;;;;;;;;;;;4956151;29;19914;-84
2022/07/28 08:08:22;;;;;;;;;;;;;;;;;;4955276;29;19914;-82
2022/07/28 08:10:49;;;;;;;;;;;;;;;;;;4956060;29;19922;-84
2022/07/28 08:13:15;;;;;;;;;;;;;;;;;;4956293;28;19925;-84
2022/07/28 08:15:40;;;;;;;;;;;;;;;;;;4955318;29;19918;-82
2022/07/28 08:18:05;;;;;;;;;;;;;;;;;;4954110;29;20013;-83
2022/07/28 08:20:31;;;;;;;;;;;;;;;;;;4953325;29;19922;-84
2022/07/28 08:22:56;;;;;;;;;;;;;;;;;;4954650;29;19915;-85
2022/07/28 08:25:22;;;;;;;;;;;;;;;;;;4954854;29;19921;-85
2022/07/28 08:27:47;;;;;;;;;;;;;;;;;;4955835;28;19915;-84
2022/07/28 08:30:17;;;;;;;;;;;;;;;;;;4955650;29;19914;-82
2022/07/28 08:32:43;;;;;;;;;;;;;;;;;;4939407;29;19919;-82
2022/07/28 08:35:08;;;;;;;;;;;;;;;;;;4955621;29;19915;-83
2022/07/28 08:37:34;;;;;;;;;;;;;;;;;;4956337;28;19915;-83
2022/07/28 08:39:59;;;;;;;;;;;;;;;;;;4955644;29;19915;-83
2022/07/28 08:42:24;;;;;;;;;;;;;;;;;;4955352;29;19993;-84
2022/07/28 08:44:50;;;;;;;;;;;;;;;;;;4955781;29;19917;-82
2022/07/28 08:47:15;;;;;;;;;;;;;;;;;;4956546;29;20351;-82
2022/07/28 08:49:43;;;;;;;;;;;;;;;;;;4956106;28;19915;-82
2022/07/28 08:52:08;;;;;;;;;;;;;;;;;;4955666;29;19922;-82
2022/07/28 08:54:34;;;;;;;;;;;;;;;;;;4961223;29;19929;-81
2022/07/28 08:56:59;;;;;;;;;;;;;;;;;;4946567;29;19949;-81
2022/07/28 08:59:24;;;;;;;;;;;;;;;;;;4967119;29;20338;-82
2022/07/28 09:01:50;;;;;;;;;;;;;;;;;;4961483;29;19922;-82
2022/07/28 09:04:15;;;;;;;;;;;;;;;;;;4963701;28;19925;-82
2022/07/28 09:06:41;;;;;;;;;;;;;;;;;;4961251;29;19919;-81
2022/07/28 09:09:08;;;;;;;;;;;;;;;;;;4959612;29;20319;-80
2022/07/28 09:11:33;;;;;;;;;;;;;;;;;;4960621;28;19919;-82
2022/07/28 09:13:59;;;;;;;;;;;;;;;;;;4960377;29;19915;-80
2022/07/28 09:16:24;;;;;;;;;;;;;;;;;;4959113;29;19919;-81
2022/07/28 09:18:49;;;;;;;;;;;;;;;;;;4959428;29;19914;-82
2022/07/28 09:21:15;;;;;;;;;;;;;;;;;;4966161;29;20370;-86
2022/07/28 09:23:40;;;;;;;;;;;;;;;;;;4948088;29;19921;-81
2022/07/28 09:26:06;;;;;;;;;;;;;;;;;;4961056;28;19924;-85
2022/07/28 09:28:31;;;;;;;;;;;;;;;;;;4955780;28;19914;-85
2022/07/28 09:30:58;;;;;;;;;;;;;;;;;;4956039;29;20394;-83
2022/07/28 09:33:23;;;;;;;;;;;;;;;;;;4954417;29;20417;-85
2022/07/28 09:35:49;;;;;;;;;;;;;;;;;;4938169;29;19954;-82
2022/07/28 09:38:14;;;;;;;;;;;;;;;;;;4955018;28;19910;-83
2022/07/28 09:40:40;;;;;;;;;;;;;;;;;;4953301;29;19954;-81
2022/07/28 09:43:05;;;;;;;;;;;;;;;;;;4955828;28;19961;-81
2022/07/28 09:45:30;;;;;;;;;;;;;;;;;;4963439;28;20402;-83
2022/07/28 09:47:56;;;;;;;;;;;;;;;;;;4956379;29;20425;-80
2022/07/28 09:50:22;;;;;;;;;;;;;;;;;;4956430;29;19922;-80
2022/07/28 09:52:48;;;;;;;;;;;;;;;;;;4940582;29;20400;-81
2022/07/28 09:55:13;;;;;;;;;;;;;;;;;;4955592;29;19963;-81
2022/07/28 09:57:39;;;;;;;;;;;;;;;;;;4955869;29;19914;-83
2022/07/28 10:00:05;;;;;;;;;;;;;;;;;;4954551;29;19921;-82
2022/07/28 10:02:36;;;;;;;;;;;;;;;;;;4954311;28;19914;-81
2022/07/28 10:05:02;;;;;;;;;;;;;;;;;;4952830;29;20382;-75
2022/07/28 10:07:28;;;;;;;;;;;;;;;;;;4952406;29;19990;-76
2022/07/28 10:09:54;;;;;;;;;;;;;;;;;;4953536;28;19946;-76
2022/07/28 10:12:19;;;;;;;;;;;;;;;;;;4953333;29;19969;-76
2022/07/28 10:14:49;;;;;;;;;;;;;;;;;;4953598;29;19921;-76
2022/07/28 10:17:14;;;;;;;;;;;;;;;;;;4954046;28;20069;-81
2022/07/28 10:19:39;;;;;;;;;;;;;;;;;;4954861;29;19914;-81
2022/07/28 10:22:05;;;;;;;;;;;;;;;;;;4956557;29;20378;-81
2022/07/28 10:24:30;;;;;;;;;;;;;;;;;;4954153;29;19919;-79
2022/07/28 10:26:56;;;;;;;;;;;;;;;;;;4953728;29;19915;-81
2022/07/28 10:29:21;;;;;;;;;;;;;;;;;;4936624;29;19922;-82
2022/07/28 10:31:46;;;;;;;;;;;;;;;;;;4953370;29;20381;-81
2022/07/28 10:34:12;;;;;;;;;;;;;;;;;;4953060;28;20342;-80
2022/07/28 10:36:37;;;;;;;;;;;;;;;;;;4953205;29;19957;-79
2022/07/28 10:39:02;;;;;;;;;;;;;;;;;;4953467;29;20442;-80
2022/07/28 10:41:28;;;;;;;;;;;;;;;;;;4954309;28;19918;-80
2022/07/28 10:43:53;;;;;;;;;;;;;;;;;;4953766;29;19914;-82
2022/07/28 10:46:18;;;;;;;;;;;;;;;;;;4952373;29;19914;-81
2022/07/28 10:48:44;;;;;;;;;;;;;;;;;;4954055;29;20434;-81
2022/07/28 10:51:09;;;;;;;;;;;;;;;;;;4953417;29;19915;-82
2022/07/28 10:53:34;;;;;;;;;;;;;;;;;;4953456;28;20405;-81
2022/07/28 10:56:00;;;;;;;;;;;;;;;;;;4955796;29;19918;-81
2022/07/28 10:58:25;;;;;;;;;;;;;;;;;;4955753;29;19914;-81
2022/07/28 11:00:51;;;;;;;;;;;;;;;;;;4956987;28;19914;-81
2022/07/28 11:03:16;;;;;;;;;;;;;;;;;;4956667;29;19926;-81
2022/07/28 11:05:42;;;;;;;;;;;;;;;;;;4957181;28;20389;-81
2022/07/28 11:08:08;;;;;;;;;;;;;;;;;;4956075;29;19914;-82
2022/07/28 11:10:33;;;;;;;;;;;;;;;;;;4956724;29;19977;-82
2022/07/28 11:12:59;;;;;;;;;;;;;;;;;;4957072;29;19910;-83
2022/07/28 11:15:24;;;;;;;;;;;;;;;;;;4956871;28;19965;-81
2022/07/28 11:17:50;;;;;;;;;;;;;;;;;;4957181;28;19946;-82
2022/07/28 11:20:15;;;;;;;;;;;;;;;;;;4955631;29;20005;-79
2022/07/28 11:22:40;;;;;;;;;;;;;;;;;;4955430;29;20329;-79
2022/07/28 11:25:06;;;;;;;;;;;;;;;;;;4955450;29;19952;-79
2022/07/28 11:27:31;;;;;;;;;;;;;;;;;;4955652;29;19958;-79
2022/07/28 11:29:57;;;;;;;;;;;;;;;;;;4939028;29;19930;-80
2022/07/28 11:32:22;;;;;;;;;;;;;;;;;;4955357;29;19918;-79
2022/07/28 11:34:47;;;;;;;;;;;;;;;;;;4955049;29;19914;-79
2022/07/28 11:37:13;;;;;;;;;;;;;;;;;;4956442;28;19922;-79
2022/07/28 11:39:38;;;;;;;;;;;;;;;;;;4956579;29;20374;-79
2022/07/28 11:42:04;;;;;;;;;;;;;;;;;;4956038;29;19910;-79
2022/07/28 11:44:29;;;;;;;;;;;;;;;;;;4954800;29;19918;-79
2022/07/28 11:46:54;;;;;;;;;;;;;;;;;;4956115;29;19926;-79
2022/07/28 11:49:20;;;;;;;;;;;;;;;;;;4956009;29;20299;-78
2022/07/28 11:51:45;;;;;;;;;;;;;;;;;;4956092;29;19918;-80
2022/07/28 11:54:11;;;;;;;;;;;;;;;;;;4955743;28;20563;-79
2022/07/28 11:56:36;;;;;;;;;;;;;;;;;;4955645;29;20028;-78
2022/07/28 11:59:02;;;;;;;;;;;;;;;;;;4954786;29;19969;-78
2022/07/28 12:01:27;;;;;;;;;;;;;;;;;;4956237;29;19938;-79
2022/07/28 12:03:52;;;;;;;;;;;;;;;;;;4954469;29;19914;-79
2022/07/28 12:06:18;;;;;;;;;;;;;;;;;;4953741;28;19919;-78
2022/07/28 12:08:43;;;;;;;;;;;;;;;;;;4955791;29;19911;-80
2022/07/28 12:11:08;;;;;;;;;;;;;;;;;;4955717;29;20046;-78
2022/07/28 12:13:34;;;;;;;;;;;;;;;;;;4955545;28;20292;-78
2022/07/28 12:15:59;;;;;;;;;;;;;;;;;;4954425;29;19922;-79
2022/07/28 12:18:25;;;;;;;;;;;;;;;;;;4954479;29;19959;-80
2022/07/28 12:20:52;;;;;;;;;;;;;;;;;;4955958;29;19921;-79
2022/07/28 12:23:17;;;;;;;;;;;;;;;;;;4956215;28;19981;-79
2022/07/28 12:25:43;;;;;;;;;;;;;;;;;;4955069;29;19976;-78
2022/07/28 12:28:09;;;;;;;;;;;;;;;;;;4939319;29;19926;-80
2022/07/28 12:30:34;;;;;;;;;;;;;;;;;;4955426;29;19970;-79
2022/07/28 12:32:59;;;;;;;;;;;;;;;;;;4955113;29;19926;-80
2022/07/28 12:35:25;;;;;;;;;;;;;;;;;;4937941;29;19918;-79
2022/07/28 12:37:50;;;;;;;;;;;;;;;;;;4955941;28;20394;-79
2022/07/28 12:40:16;;;;;;;;;;;;;;;;;;4954057;29;19954;-79
2022/07/28 12:42:41;;;;;;;;;;;;;;;;;;4954944;29;19921;-79
2022/07/28 12:45:08;;;;;;;;;;;;;;;;;;4954986;29;19921;-79
2022/07/28 12:47:34;;;;;;;;;;;;;;;;;;4954881;28;20049;-79
2022/07/28 12:49:59;;;;;;;;;;;;;;;;;;4953684;29;19957;-78
2022/07/28 12:52:24;;;;;;;;;;;;;;;;;;4953646;28;20016;-78
2022/07/28 12:54:50;;;;;;;;;;;;;;;;;;4938089;29;19915;-78
2022/07/28 12:57:15;;;;;;;;;;;;;;;;;;4954900;28;19938;-78
2022/07/28 12:59:41;;;;;;;;;;;;;;;;;;4953869;29;19911;-78
2022/07/28 13:02:07;;;;;;;;;;;;;;;;;;4954946;29;19921;-77
2022/07/28 13:04:32;;;;;;;;;;;;;;;;;;4937444;29;20353;-79
2022/07/28 13:06:58;;;;;;;;;;;;;;;;;;4954598;29;19934;-79
2022/07/28 13:09:24;;;;;;;;;;;;;;;;;;4954542;29;19950;-78
2022/07/28 13:11:49;;;;;;;;;;;;;;;;;;4953544;29;19922;-79
2022/07/28 13:14:15;;;;;;;;;;;;;;;;;;4953203;29;19926;-78
2022/07/28 13:16:40;;;;;;;;;;;;;;;;;;4954110;28;20341;-77
2022/07/28 13:19:07;;;;;;;;;;;;;;;;;;4953445;29;19911;-79
2022/07/28 13:21:33;;;;;;;;;;;;;;;;;;4955257;28;19941;-80
2022/07/28 13:23:58;;;;;;;;;;;;;;;;;;4954471;29;20286;-79
2022/07/28 13:26:23;;;;;;;;;;;;;;;;;;4954511;29;20306;-78
2022/07/28 13:28:49;;;;;;;;;;;;;;;;;;4952950;28;19985;-81
2022/07/28 13:31:14;;;;;;;;;;;;;;;;;;4957424;29;19966;-81
2022/07/28 13:33:40;;;;;;;;;;;;;;;;;;4956725;29;19991;-82
2022/07/28 13:36:06;;;;;;;;;;;;;;;;;;4960785;28;19919;-82
2022/07/28 13:38:32;;;;;;;;;;;;;;;;;;4960041;29;19924;-83
2022/07/28 13:40:57;;;;;;;;;;;;;;;;;;4964230;29;19914;-84
2022/07/28 13:43:23;;;;;;;;;;;;;;;;;;4961873;29;19966;-81
2022/07/28 13:45:48;;;;;;;;;;;;;;;;;;4956089;28;19974;-79
2022/07/28 13:48:14;;;;;;;;;;;;;;;;;;4956429;29;20306;-82
2022/07/28 13:50:39;;;;;;;;;;;;;;;;;;4957996;28;19968;-79
2022/07/28 13:53:04;;;;;;;;;;;;;;;;;;4956127;28;20321;-79
2022/07/28 13:55:30;;;;;;;;;;;;;;;;;;4957188;28;19926;-81
2022/07/28 13:57:55;;;;;;;;;;;;;;;;;;4957693;28;19933;-82
2022/07/28 14:00:21;;;;;;;;;;;;;;;;;;4955582;29;19918;-78
2022/07/28 14:02:47;;;;;;;;;;;;;;;;;;4956141;28;20294;-79
2022/07/28 14:05:13;;;;;;;;;;;;;;;;;;4957508;29;19946;-81
2022/07/28 14:07:38;;;;;;;;;;;;;;;;;;4940287;29;20278;-80
2022/07/28 14:10:04;;;;;;;;;;;;;;;;;;4956769;29;19914;-80
2022/07/28 14:12:30;;;;;;;;;;;;;;;;;;4957067;29;19972;-81
2022/07/28 14:14:55;;;;;;;;;;;;;;;;;;4960290;29;19915;-80
2022/07/28 14:17:24;;;;;;;;;;;;;;;;;;4956881;29;19961;-80
2022/07/28 14:19:49;;;;;;;;;;;;;;;;;;4955717;29;20015;-79
2022/07/28 14:22:15;;;;;;;;;;;;;;;;;;4972142;28;19935;-81
2022/07/28 14:24:40;;;;;;;;;;;;;;;;;;4958457;28;19910;-80
2022/07/28 14:27:05;;;;;;;;;;;;;;;;;;4958061;28;19915;-79
2022/07/28 14:29:31;;;;;;;;;;;;;;;;;;4959701;28;20508;-80
2022/07/28 14:31:58;;;;;;;;;;;;;;;;;;4963288;28;19926;-81
2022/07/28 14:34:23;;;;;;;;;;;;;;;;;;4959817;28;19914;-81
2022/07/28 14:36:51;;;;;;;;;;;;;;;;;;4953812;28;19923;-79
2022/07/28 14:39:17;;;;;;;;;;;;;;;;;;4957796;28;19915;-81
2022/07/28 14:41:43;;;;;;;;;;;;;;;;;;4956787;29;20132;-80
2022/07/28 14:44:08;;;;;;;;;;;;;;;;;;4958192;28;19962;-81
2022/07/28 14:46:33;;;;;;;;;;;;;;;;;;4941403;29;19922;-81
2022/07/28 14:48:59;;;;;;;;;;;;;;;;;;4958246;29;19921;-82
2022/07/28 14:51:24;;;;;;;;;;;;;;;;;;4957960;29;20342;-80
2022/07/28 14:53:50;;;;;;;;;;;;;;;;;;4939934;29;19915;-80
2022/07/28 14:56:15;;;;;;;;;;;;;;;;;;4964197;28;20293;-82
2022/07/28 14:58:41;;;;;;;;;;;;;;;;;;4951855;29;19921;-80
2022/07/28 15:01:06;;;;;;;;;;;;;;;;;;4956805;29;19962;-80
2022/07/28 15:03:33;;;;;;;;;;;;;;;;;;4953301;29;19915;-81
2022/07/28 15:05:59;;;;;;;;;;;;;;;;;;4954296;29;19914;-81
2022/07/28 15:08:24;;;;;;;;;;;;;;;;;;4957517;28;19921;-80
2022/07/28 15:10:50;;;;;;;;;;;;;;;;;;4951459;29;19919;-80
2022/07/28 15:13:15;;;;;;;;;;;;;;;;;;4937651;29;20009;-82
2022/07/28 15:15:41;;;;;;;;;;;;;;;;;;4941143;29;20234;-79
2022/07/28 15:18:06;;;;;;;;;;;;;;;;;;4955599;29;20013;-80
2022/07/28 15:20:31;;;;;;;;;;;;;;;;;;4939862;29;20052;-80
2022/07/28 15:22:57;;;;;;;;;;;;;;;;;;4959255;28;20045;-84
2022/07/28 15:25:22;;;;;;;;;;;;;;;;;;4956850;29;19962;-85
2022/07/28 15:27:47;;;;;;;;;;;;;;;;;;4948631;29;19918;-78
2022/07/28 15:30:13;;;;;;;;;;;;;;;;;;4940506;29;19910;-82
2022/07/28 15:32:38;;;;;;;;;;;;;;;;;;4946765;28;19918;-82
2022/07/28 15:35:03;;;;;;;;;;;;;;;;;;4954769;28;20267;-82
2022/07/28 15:37:29;;;;;;;;;;;;;;;;;;4940023;29;19942;-80
2022/07/28 15:39:54;;;;;;;;;;;;;;;;;;4957177;28;19969;-80
2022/07/28 15:42:20;;;;;;;;;;;;;;;;;;4955506;28;19925;-81
2022/07/28 15:44:45;;;;;;;;;;;;;;;;;;4955012;29;19911;-80
2022/07/28 15:47:11;;;;;;;;;;;;;;;;;;4939615;29;19914;-83
2022/07/28 15:49:36;;;;;;;;;;;;;;;;;;4951158;29;19921;-82
2022/07/28 15:52:03;;;;;;;;;;;;;;;;;;4932823;29;19915;-82
2022/07/28 15:54:28;;;;;;;;;;;;;;;;;;4942831;29;19923;-82
2022/07/28 15:56:54;;;;;;;;;;;;;;;;;;4935657;29;19930;-83
2022/07/28 15:59:19;;;;;;;;;;;;;;;;;;4935847;29;20374;-82
2022/07/28 16:01:44;;;;;;;;;;;;;;;;;;4938509;29;19974;-83
2022/07/28 16:04:10;;;;;;;;;;;;;;;;;;4956615;29;19921;-83
2022/07/28 16:09:20;;;;;;;;;;;;;;;;;;4955322;29;19918;-82
2022/07/28 16:11:46;;;;;;;;;;;;;;;;;;4937686;28;20005;-83
2022/07/28 16:14:11;;;;;;;;;;;;;;;;;;4928507;29;19965;-84
2022/07/28 16:16:37;;;;;;;;;;;;;;;;;;4954889;29;20372;-83
2022/07/28 16:19:02;;;;;;;;;;;;;;;;;;4957485;28;19936;-83
2022/07/28 16:21:28;;;;;;;;;;;;;;;;;;4955579;29;20005;-83
2022/07/28 16:23:53;;;;;;;;;;;;;;;;;;4957541;28;19914;-83
2022/07/28 16:26:18;;;;;;;;;;;;;;;;;;4957716;29;19926;-83
2022/07/28 16:28:44;;;;;;;;;;;;;;;;;;4953529;29;19915;-83
2022/07/28 16:31:09;;;;;;;;;;;;;;;;;;4937657;29;19911;-83
2022/07/28 16:33:35;;;;;;;;;;;;;;;;;;4947967;29;20342;-83
2022/07/28 16:36:00;;;;;;;;;;;;;;;;;;4956264;29;19929;-83
2022/07/28 16:38:26;;;;;;;;;;;;;;;;;;4955241;29;20232;-82